Time;durP1;ratioP1;P1;durP2;ratioP2;P2;SDS_P1;SDS_P2;PMS_P1;PMS_P2;Temp;Humidity;BMP_temperature;BMP_pressure;BME280_temperature;BME280_humidity;BME280_pressure;Samples;Min_cycle;Max_cycle;Signal;HPM_P1;HPM_P2
2022/06/24 00:00:13;;;;;;;6.80;2.90;;;;;;;17.23;74.19;99262.73;109313;1274;22402;-59
2022/06/24 00:02:40;;;;;;;6.30;3.30;;;;;;;17.23;74.18;99261.59;109146;1275;140858;-59
2022/06/24 00:05:13;;;;;;;5.50;3.70;;;;;;;17.22;74.02;99264.47;109216;1276;22635;-59
2022/06/24 00:07:44;;;;;;;3.20;2.90;;;;;;;17.19;73.90;99269.49;109115;1274;139330;-59
2022/06/24 00:10:12;;;;;;;4.50;2.50;;;;;;;17.18;73.76;99273.52;109333;1274;22588;-59
2022/06/24 00:12:39;;;;;;;6.30;3.00;;;;;;;17.19;73.55;99270.81;109311;1274;22463;-59
2022/06/24 00:15:07;;;;;;;4.60;3.10;;;;;;;17.17;73.39;99270.90;109161;1274;139580;-52
2022/06/24 00:17:35;;;;;;;5.60;3.30;;;;;;;17.16;73.45;99274.70;109338;1274;22471;-59
2022/06/24 00:20:05;;;;;;;6.00;3.40;;;;;;;17.17;73.49;99279.34;109165;1273;139339;-59
2022/06/24 00:22:40;;;;;;;3.50;3.00;;;;;;;17.17;73.40;99277.14;109245;1274;22403;-59
2022/06/24 00:25:10;;;;;;;4.30;3.10;;;;;;;17.18;73.25;99272.15;109330;1274;22445;-59
2022/06/24 00:27:37;;;;;;;4.20;3.20;;;;;;;17.18;73.23;99273.69;109213;1274;138416;-59
2022/06/24 00:30:14;;;;;;;4.20;3.20;;;;;;;17.16;73.15;99274.85;109288;1274;23412;-59
2022/06/24 00:32:41;;;;;;;;;;;;;;;17.16;73.09;99273.36;109164;1274;138966;-59
2022/06/24 00:35:14;;;;;;;4.30;3.00;;;;;;;17.17;73.01;99272.45;109181;1275;23225;-58
2022/06/24 00:37:43;;;;;;;5.40;3.60;;;;;;;17.17;73.00;99273.31;109169;1274;139415;-59
2022/06/24 00:40:09;;;;;;;6.50;3.40;;;;;;;17.18;72.94;99277.67;109272;1274;22408;-59
2022/06/24 00:42:37;;;;;;;3.70;3.00;;;;;;;17.18;72.85;99280.84;109309;1274;22412;-59
2022/06/24 00:45:36;;;;;;;5.60;3.30;;;;;;;17.18;72.92;99277.16;108769;1274;503222;-59
2022/06/24 00:48:52;;;;;;;6.60;3.50;;;;;;;17.22;73.36;99267.72;101763;1309;545352;-59
2022/06/24 00:51:20;;;;;;;5.10;3.50;;;;;;;17.18;73.76;99267.63;107718;1288;137839;-59
2022/06/24 00:53:49;;;;;;;3.90;3.30;;;;;;;17.17;73.96;99272.34;107914;1289;23271;-60
2022/06/24 00:56:18;;;;;;;4.80;3.60;;;;;;;17.14;74.27;99264.10;107931;1287;138294;-59
2022/06/24 00:58:55;;;;;;;6.10;3.00;;;;;;;17.09;74.73;99269.16;107696;1290;23214;-59
2022/06/24 01:01:27;;;;;;;6.30;4.30;;;;;;;17.05;75.15;99274.41;107721;1288;210863;-60
2022/06/24 01:03:55;;;;;;;8.40;4.30;;;;;;;17.02;75.46;99264.32;108195;1286;22520;-59
2022/06/24 01:06:25;;;;;;;7.60;3.30;;;;;;;16.96;75.73;99250.11;108259;1286;22556;-59
2022/06/24 01:08:52;;;;;;;5.90;3.30;;;;;;;16.94;76.12;99250.05;107972;1286;138446;-59
2022/06/24 01:11:26;;;;;;;6.00;3.80;;;;;;;16.91;76.44;99261.09;108094;1286;23457;-59
2022/06/24 01:13:53;;;;;;;9.40;3.90;;;;;;;16.90;76.75;99259.80;107961;1288;139332;-59
2022/06/24 01:16:21;;;;;;;10.90;3.80;;;;;;;16.88;76.94;99265.06;108146;1287;22527;-66
2022/06/24 01:18:55;;;;;;;11.00;4.80;;;;;;;16.88;77.10;99279.13;108146;1287;23210;-66
2022/06/24 01:21:38;;;;;;;7.90;3.50;;;;;;;16.86;77.43;99283.35;108201;1286;138060;-66
2022/06/24 01:24:10;;;;;;;5.10;3.80;;;;;;;16.85;77.61;99282.04;108080;1287;22476;-66
2022/06/24 01:26:39;;;;;;;5.00;3.90;;;;;;;16.86;77.73;99280.10;108140;1286;138204;-67
2022/06/24 01:29:10;;;;;;;8.00;3.90;;;;;;;16.85;77.88;99274.07;108103;1286;22477;-66
2022/06/24 01:31:40;;;;;;;17.80;4.30;;;;;;;16.83;77.84;99268.59;108111;1287;138006;-65
2022/06/24 01:34:11;;;;;;;7.00;4.20;;;;;;;16.82;78.08;99267.06;108226;1286;22595;-66
2022/06/24 01:36:38;;;;;;;5.20;4.00;;;;;;;16.78;78.39;99270.05;108093;1287;22445;-66
2022/06/24 01:39:05;;;;;;;6.90;4.30;;;;;;;16.77;78.51;99276.18;108119;1287;139929;-66
2022/06/24 01:41:32;;;;;;;5.90;3.80;;;;;;;16.78;78.72;99277.15;108311;1286;22506;-65
2022/06/24 01:43:58;;;;;;;5.40;4.30;;;;;;;16.80;78.73;99273.15;108181;1286;137878;-65
2022/06/24 01:46:25;;;;;;;4.70;3.70;;;;;;;16.81;78.88;99259.83;108251;1286;22635;-64
2022/06/24 01:48:52;;;;;;;4.30;3.60;;;;;;;16.79;78.98;99247.38;108123;1287;22471;-65
2022/06/24 01:51:19;;;;;;;6.90;4.30;;;;;;;16.79;79.13;99243.19;108036;1287;138085;-65
2022/06/24 01:53:46;;;;;;;9.10;3.90;;;;;;;16.78;79.41;99243.80;108005;1286;23463;-65
2022/06/24 01:56:13;;;;;;;8.00;3.70;;;;;;;16.77;79.61;99248.00;106239;1286;138711;-63
2022/06/24 01:58:40;;;;;;;8.00;4.00;;;;;;;16.76;79.79;99251.70;103875;1288;22866;-65
2022/06/24 02:01:06;;;;;;;9.60;4.90;;;;;;;16.77;79.96;99246.64;103895;1287;25446;-65
2022/06/24 02:03:38;;;;;;;6.70;4.30;;;;;;;16.80;80.15;99255.06;103613;1288;138163;-64
2022/06/24 02:06:08;;;;;;;6.10;4.20;;;;;;;16.82;80.25;99255.41;103820;1287;23972;-65
2022/06/24 02:08:35;;;;;;;6.70;4.00;;;;;;;16.83;80.11;99255.06;103554;1287;138699;-65
2022/06/24 02:14:02;;;;;;;8.10;4.50;;;;;;;16.85;79.62;99254.80;103444;1289;138465;-66
2022/06/24 02:16:29;;;;;;;5.50;3.60;;;;;;;16.86;79.61;99253.95;103636;1289;25266;-65
2022/06/24 02:18:56;;;;;;;4.50;3.70;;;;;;;16.87;79.25;99253.99;103515;1288;23838;-65
2022/06/24 02:21:24;;;;;;;7.10;3.80;;;;;;;16.89;79.05;99249.29;103671;1286;138792;-66
2022/06/24 02:23:51;;;;;;;3.80;3.10;;;;;;;16.91;78.86;99249.70;108155;1286;22460;-64
2022/06/24 02:26:18;;;;;;;5.50;3.70;;;;;;;16.93;78.59;99248.73;107904;1287;139915;-64
2022/06/24 02:28:45;;;;;;;5.10;3.50;;;;;;;16.95;78.41;99251.84;108257;1286;23225;-64
2022/06/24 02:31:12;;;;;;;9.40;3.20;;;;;;;16.98;78.16;99256.63;108273;1286;23202;-64
2022/06/24 02:33:39;;;;;;;6.10;3.20;;;;;;;16.99;77.95;99253.36;108054;1287;137503;-65
2022/06/24 02:36:06;;;;;;;5.70;3.20;;;;;;;17.02;77.84;99256.96;108202;1286;22283;-64
2022/06/24 02:38:34;;;;;;;7.60;4.00;;;;;;;17.05;77.81;99253.89;108077;1286;139300;-64
2022/06/24 02:41:01;;;;;;;4.60;3.00;;;;;;;17.07;77.68;99254.43;108243;1286;22550;-65
2022/06/24 02:43:35;;;;;;;4.50;3.10;;;;;;;17.09;77.60;99257.38;108183;1287;138070;-65
2022/06/24 02:46:03;;;;;;;3.70;2.50;;;;;;;17.11;77.41;99254.55;108198;1287;22460;-65
2022/06/24 02:48:31;;;;;;;5.10;2.90;;;;;;;17.13;77.29;99256.15;108178;1287;22647;-65
2022/06/24 02:51:04;;;;;;;10.30;2.80;;;;;;;17.16;77.16;99252.56;107997;1287;138856;-65
2022/06/24 02:53:31;;;;;;;6.40;2.90;;;;;;;17.18;77.06;99254.09;108185;1287;22469;-65
2022/06/24 02:56:02;;;;;;;7.50;3.00;;;;;;;17.21;76.73;99258.34;108455;1283;140109;-66
2022/06/24 02:58:30;;;;;;;4.60;2.60;;;;;;;17.24;76.53;99261.98;108902;1278;22437;-65
2022/06/24 03:00:58;;;;;;;11.00;3.00;;;;;;;17.26;76.31;99258.17;109076;1277;22577;-65
2022/06/24 03:03:25;;;;;;;6.30;2.90;;;;;;;17.29;76.14;99259.66;108817;1280;138459;-65
2022/06/24 03:05:51;;;;;;;7.90;2.70;;;;;;;17.31;75.90;99260.27;109046;1276;22477;-64
2022/06/24 03:08:20;;;;;;;5.10;2.40;;;;;;;17.33;75.53;99259.98;108796;1280;139133;-64
2022/06/24 03:10:47;;;;;;;6.80;2.60;;;;;;;17.36;75.35;99260.65;109043;1277;23304;-64
2022/06/24 03:13:14;;;;;;;5.10;2.30;;;;;;;17.39;74.90;99257.84;109145;1277;22476;-64
2022/06/24 03:15:43;;;;;;;6.80;2.90;;;;;;;17.41;74.72;99254.50;108941;1278;137684;-64
2022/06/24 03:18:11;;;;;;;2.90;2.50;;;;;;;17.43;74.69;99261.17;108973;1280;22294;-65
2022/06/24 03:20:38;;;;;;;5.40;2.60;;;;;;;17.44;74.61;99259.66;108624;1279;139125;-65
2022/06/24 03:23:11;;;;;;;4.30;2.60;;;;;;;17.45;74.57;99256.79;108829;1279;23163;-65
2022/06/24 03:25:38;;;;;;;4.20;2.50;;;;;;;17.45;74.59;99261.79;107990;1277;138497;-64
2022/06/24 03:28:05;;;;;;;7.60;3.00;;;;;;;17.45;74.04;99260.57;104619;1278;22569;-64
2022/06/24 03:30:32;;;;;;;6.80;2.90;;;;;;;17.47;73.87;99262.61;109008;1277;22428;-65
2022/06/24 03:33:00;;;;;;;3.70;2.60;;;;;;;17.49;73.81;99260.20;108794;1278;137675;-64
2022/06/24 03:35:27;;;;;;;3.70;3.20;;;;;;;17.51;73.63;99264.02;109077;1277;22521;-65
2022/06/24 03:37:54;;;;;;;3.80;2.70;;;;;;;17.54;73.43;99261.42;108813;1279;140029;-65
2022/06/24 03:40:21;;;;;;;5.10;2.60;;;;;;;17.56;73.01;99263.23;108931;1281;22481;-65
2022/06/24 03:42:47;;;;;;;4.00;2.60;;;;;;;17.59;72.78;99259.38;109149;1277;22467;-65
2022/06/24 03:45:14;;;;;;;7.50;2.90;;;;;;;17.61;72.43;99255.58;108847;1277;139566;-65
2022/06/24 03:47:41;;;;;;;8.00;2.40;;;;;;;17.63;72.09;99258.56;108865;1280;22509;-65
2022/06/24 03:50:08;;;;;;;8.30;2.80;;;;;;;17.65;71.84;99263.50;108932;1277;138932;-65
2022/06/24 03:52:35;;;;;;;6.90;2.40;;;;;;;17.68;71.55;99265.38;109131;1277;23557;-65
2022/06/24 03:55:02;;;;;;;5.00;2.70;;;;;;;17.70;71.24;99257.29;109091;1277;22640;-65
2022/06/24 03:57:29;;;;;;;3.90;2.40;;;;;;;17.73;70.97;99257.33;109086;1275;138965;-65
2022/06/24 03:59:56;;;;;;;5.10;2.60;;;;;;;17.75;70.75;99256.83;109205;1277;22447;-65
2022/06/24 04:02:23;;;;;;;2.50;2.20;;;;;;;17.79;70.46;99263.00;109169;1274;137952;-65
2022/06/24 04:04:50;;;;;;;6.80;2.40;;;;;;;17.83;70.17;99261.38;109194;1277;22448;-65
2022/06/24 04:07:17;;;;;;;7.40;2.20;;;;;;;17.86;70.10;99264.66;105244;1277;24450;-64
2022/06/24 04:09:44;;;;;;;3.20;2.50;;;;;;;17.89;69.95;99270.87;104640;1278;139278;-64
2022/06/24 04:12:11;;;;;;;4.90;2.40;;;;;;;17.91;69.65;99267.11;104707;1277;25264;-64
2022/06/24 04:17:24;;;;;;;8.00;2.70;;;;;;;17.97;68.78;99264.28;104747;1277;25530;-64
2022/06/24 04:19:52;;;;;;;8.70;3.10;;;;;;;17.99;68.47;99260.31;104595;1275;138784;-64
2022/06/24 04:22:20;;;;;;;7.60;2.60;;;;;;;18.02;68.31;99259.27;109076;1277;22469;-65
2022/06/24 04:24:47;;;;;;;7.10;2.40;;;;;;;18.04;68.11;99262.11;109207;1277;22463;-64
2022/06/24 04:27:14;;;;;;;4.50;2.30;;;;;;;18.07;67.93;99266.02;109140;1275;138656;-65
2022/06/24 04:29:41;;;;;;;4.50;2.30;;;;;;;18.09;67.90;99265.81;109221;1274;23230;-65
2022/06/24 04:32:08;;;;;;;3.60;2.70;;;;;;;18.12;67.88;99263.97;109078;1277;138013;-65
2022/06/24 04:34:38;;;;;;;4.70;2.60;;;;;;;18.15;67.57;99260.31;109273;1274;23082;-65
2022/06/24 04:37:06;;;;;;;6.40;2.40;;;;;;;18.19;67.69;99268.48;109219;1274;22458;-65
2022/06/24 04:39:33;;;;;;;7.10;2.40;;;;;;;18.23;67.56;99271.30;109085;1274;138730;-65
2022/06/24 04:42:00;;;;;;;4.40;2.20;;;;;;;18.27;67.25;99272.54;109191;1274;23331;-65
2022/06/24 04:44:27;;;;;;;5.80;2.60;;;;;;;18.30;66.79;99276.33;109186;1274;139961;-65
2022/06/24 04:46:53;;;;;;;12.80;2.70;;;;;;;18.32;66.59;99277.14;109238;1276;22464;-64
2022/06/24 04:49:20;;;;;;;3.80;2.40;;;;;;;18.34;66.66;99277.46;109216;1277;23141;-65
2022/06/24 04:51:47;;;;;;;8.50;2.80;;;;;;;18.36;66.78;99276.14;109220;1276;22480;-65
2022/06/24 04:54:14;;;;;;;5.70;2.80;;;;;;;18.37;66.60;99278.98;109199;1276;22490;-65
2022/06/24 04:56:40;;;;;;;7.40;3.20;;;;;;;18.42;66.69;99281.30;109125;1274;138337;-65
2022/06/24 04:59:07;;;;;;;5.90;2.70;;;;;;;18.46;66.24;99282.04;109195;1276;22468;-65
2022/06/24 05:01:34;;;;;;;7.60;3.50;;;;;;;18.49;65.69;99287.35;109036;1277;138399;-65
2022/06/24 05:04:01;;;;;;;5.20;3.00;;;;;;;18.51;65.64;99285.41;109177;1277;22523;-65
2022/06/24 05:06:28;;;;;;;5.10;2.90;;;;;;;18.52;65.54;99288.59;106776;1277;23062;-66
2022/06/24 05:08:55;;;;;;;9.00;2.70;;;;;;;18.56;65.75;99291.57;104788;1277;138296;-65
2022/06/24 05:11:21;;;;;;;4.50;2.30;;;;;;;18.61;65.93;99288.27;104823;1274;22560;-66
2022/06/24 05:13:48;;;;;;;5.40;3.20;;;;;;;18.65;65.35;99290.46;104742;1277;139592;-65
2022/06/24 05:16:15;;;;;;;7.80;3.40;;;;;;;18.71;65.17;99289.95;104914;1277;22579;-66
2022/06/24 05:19:02;;;;;;;5.10;2.70;;;;;;;18.77;64.34;99290.98;104768;1277;25319;-66
2022/06/24 05:21:28;;;;;;;3.20;2.60;;;;;;;18.82;64.39;99290.13;104770;1277;138149;-65
2022/06/24 05:23:55;;;;;;;4.10;2.50;;;;;;;18.85;64.18;99291.61;104860;1277;25563;-68
2022/06/24 05:26:22;;;;;;;3.90;2.80;;;;;;;18.87;63.97;99290.52;104679;1277;138073;-66
2022/06/24 05:28:49;;;;;;;6.40;2.70;;;;;;;18.88;63.88;99290.14;104814;1277;25422;-66
2022/06/24 05:31:15;;;;;;;5.00;2.90;;;;;;;18.89;63.45;99294.52;104835;1277;25263;-66
2022/06/24 05:33:42;;;;;;;6.10;2.10;;;;;;;18.90;63.65;99291.02;104744;1277;137391;-66
2022/06/24 05:36:09;;;;;;;4.70;2.80;;;;;;;18.93;63.40;99298.62;104888;1275;23785;-66
2022/06/24 05:38:36;;;;;;;4.90;2.80;;;;;;;18.94;63.27;99298.92;104583;1277;137781;-66
2022/06/24 05:41:09;;;;;;;2.90;2.50;;;;;;;18.99;63.22;99305.18;104760;1277;24228;-66
2022/06/24 05:43:36;;;;;;;4.00;2.60;;;;;;;19.02;62.92;99303.52;104682;1275;138164;-67
2022/06/24 05:46:02;;;;;;;6.50;2.80;;;;;;;19.04;62.60;99300.13;104864;1275;23111;-67
2022/06/24 05:48:30;;;;;;;3.70;2.70;;;;;;;19.09;62.60;99306.45;104648;1275;26617;-66
2022/06/24 05:50:57;;;;;;;8.20;2.80;;;;;;;19.14;62.87;99308.59;104595;1277;139306;-66
2022/06/24 05:56:09;;;;;;;4.20;2.60;;;;;;;19.31;61.70;99308.79;104806;1277;139119;-65
2022/06/24 05:58:36;;;;;;;5.50;2.80;;;;;;;19.46;61.95;99309.36;104848;1277;25335;-66
2022/06/24 06:01:10;;;;;;;4.70;2.60;;;;;;;19.65;61.61;99306.20;104835;1277;22743;-67
2022/06/24 06:03:37;;;;;;;4.60;2.40;;;;;;;19.87;60.81;99306.97;109123;1276;139250;-67
2022/06/24 06:06:05;;;;;;;4.40;2.60;;;;;;;20.03;59.76;99302.58;109278;1276;22456;-67
2022/06/24 06:08:32;;;;;;;7.80;2.90;;;;;;;20.14;58.68;99307.59;109144;1276;138345;-67
2022/06/24 06:10:59;;;;;;;8.90;3.10;;;;;;;20.18;58.33;99304.64;109208;1277;22400;-67
2022/06/24 06:13:26;;;;;;;4.00;2.30;;;;;;;20.22;58.31;99305.94;109190;1275;139354;-66
2022/06/24 06:15:52;;;;;;;4.50;3.10;;;;;;;20.22;57.92;99306.27;109283;1274;22448;-67
2022/06/24 06:18:19;;;;;;;8.20;3.20;;;;;;;20.22;57.53;99300.52;109225;1277;22411;-67
2022/06/24 06:20:46;;;;;;;6.80;3.30;;;;;;;20.23;57.31;99306.73;109114;1275;139718;-68
2022/06/24 06:23:12;;;;;;;3.50;2.80;;;;;;;20.24;57.20;99305.52;109302;1275;23289;-67
2022/06/24 06:25:39;;;;;;;5.20;3.00;;;;;;;20.27;57.18;99307.15;109152;1274;138350;-68
2022/06/24 06:28:06;;;;;;;4.10;2.80;;;;;;;20.32;56.78;99308.89;109323;1274;23661;-68
2022/06/24 06:30:33;;;;;;;7.20;3.10;;;;;;;20.37;56.23;99307.85;109297;1276;22413;-68
2022/06/24 06:33:00;;;;;;;10.50;3.40;;;;;;;20.42;56.32;99306.06;109224;1274;138365;-67
2022/06/24 06:35:26;;;;;;;5.20;2.60;;;;;;;20.49;56.34;99304.60;109176;1277;22509;-68
2022/06/24 06:37:53;;;;;;;8.20;3.50;;;;;;;20.55;55.70;99313.09;109091;1276;138211;-67
2022/06/24 06:40:20;;;;;;;7.40;2.90;;;;;;;20.58;55.04;99320.59;109271;1275;23537;-67
2022/06/24 06:42:47;;;;;;;6.70;2.90;;;;;;;20.57;54.60;99322.12;109242;1277;22539;-67
2022/06/24 06:45:14;;;;;;;13.10;3.10;;;;;;;20.56;54.17;99319.05;109082;1276;137345;-67
2022/06/24 06:47:41;;;;;;;7.70;2.80;;;;;;;20.55;54.46;99326.36;109251;1275;23275;-67
2022/06/24 06:50:08;;;;;;;4.00;2.60;;;;;;;20.52;54.92;99328.14;109122;1276;139359;-67
2022/06/24 06:52:41;;;;;;;13.60;3.80;;;;;;;20.51;55.29;99334.88;109312;1275;22440;-68
2022/06/24 06:55:08;;;;;;;28.40;5.10;;;;;;;20.51;55.31;99331.79;109280;1276;22625;-67
2022/06/24 06:57:34;;;;;;;4.80;3.00;;;;;;;20.51;55.34;99334.42;109166;1276;138107;-67
2022/06/24 07:00:03;;;;;;;9.70;3.10;;;;;;;20.52;55.79;99332.96;109289;1275;22524;-67
2022/06/24 07:02:30;;;;;;;7.90;3.60;;;;;;;20.55;56.23;99334.63;109122;1276;138231;-67
2022/06/24 07:04:57;;;;;;;15.30;4.20;;;;;;;20.59;56.27;99333.68;109209;1276;22439;-68
2022/06/24 07:07:24;;;;;;;13.30;3.90;;;;;;;20.62;56.35;99336.66;109120;1276;138548;-67
2022/06/24 07:09:51;;;;;;;11.70;3.40;;;;;;;20.66;56.14;99340.13;109154;1276;22422;-68
2022/06/24 07:12:18;;;;;;;46.30;6.20;;;;;;;20.69;56.20;99337.66;109209;1276;22418;-68
2022/06/24 07:14:45;;;;;;;12.30;4.20;;;;;;;20.73;56.30;99336.77;109065;1276;137358;-68
2022/06/24 07:17:14;;;;;;;18.20;5.00;;;;;;;20.78;56.04;99335.28;109352;1275;22414;-68
2022/06/24 07:19:41;;;;;;;11.00;4.00;;;;;;;20.83;55.91;99332.23;109193;1276;139418;-67
2022/06/24 07:22:08;;;;;;;4.50;3.80;;;;;;;20.88;56.08;99336.18;109270;1276;23562;-68
2022/06/24 07:24:34;;;;;;;9.30;3.00;;;;;;;20.90;56.00;99335.76;109303;1277;22431;-68
2022/06/24 07:27:05;;;;;;;5.80;3.40;;;;;;;20.94;56.51;99337.84;109240;1274;139012;-69
2022/06/24 07:29:33;;;;;;;7.80;3.60;;;;;;;20.96;56.21;99342.23;109260;1274;23829;-69
2022/06/24 07:32:00;;;;;;;8.00;3.20;;;;;;;20.99;55.89;99341.09;109089;1275;138517;-68
2022/06/24 07:34:27;;;;;;;16.10;4.90;;;;;;;21.01;55.26;99340.30;109172;1276;22458;-69
2022/06/24 07:36:54;;;;;;;39.50;7.40;;;;;;;21.02;53.99;99334.34;109277;1277;22486;-69
2022/06/24 07:39:21;;;;;;;5.70;3.20;;;;;;;21.02;53.59;99337.83;109150;1274;138472;-69
2022/06/24 07:41:48;;;;;;;9.90;3.80;;;;;;;21.01;53.30;99337.05;109286;1276;22484;-68
2022/06/24 07:44:15;;;;;;;8.90;3.20;;;;;;;21.01;53.35;99339.84;109057;1274;138392;-69
2022/06/24 07:46:41;;;;;;;4.80;3.30;;;;;;;21.02;52.89;99346.69;109183;1277;22574;-68
2022/06/24 07:49:08;;;;;;;11.80;3.90;;;;;;;21.05;52.87;99343.33;109203;1276;22382;-69
2022/06/24 07:51:35;;;;;;;15.80;4.80;;;;;;;21.08;52.81;99344.08;109092;1276;137805;-68
2022/06/24 07:54:02;;;;;;;4.40;2.70;;;;;;;21.09;52.77;99342.64;109196;1274;22437;-68
2022/06/24 07:59:15;;;;;;;8.30;3.30;;;;;;;21.12;52.38;99355.64;109127;1276;22463;-69
2022/06/24 08:01:42;;;;;;;7.20;3.60;;;;;;;21.11;52.18;99349.67;109013;1276;139598;-69
2022/06/24 08:04:09;;;;;;;6.10;3.00;;;;;;;21.09;52.57;99343.04;109144;1277;22456;-69
2022/06/24 08:06:37;;;;;;;5.10;3.40;;;;;;;21.10;53.05;99344.79;109225;1276;22950;-68
2022/06/24 08:09:04;;;;;;;10.60;3.70;;;;;;;21.11;53.39;99347.30;109053;1276;138250;-69
2022/06/24 08:11:31;;;;;;;5.90;3.50;;;;;;;21.12;52.99;99341.50;109170;1276;22448;-69
2022/06/24 08:13:58;;;;;;;7.00;3.10;;;;;;;21.15;52.91;99344.16;109172;1275;139341;-68
2022/06/24 08:16:25;;;;;;;5.00;3.40;;;;;;;21.16;52.66;99340.93;109259;1276;23410;-69
2022/06/24 08:18:52;;;;;;;3.90;3.40;;;;;;;21.16;52.50;99334.54;109174;1276;22501;-69
2022/06/24 08:21:19;;;;;;;6.20;3.30;;;;;;;21.17;52.49;99337.02;109151;1275;138991;-68
2022/06/24 08:23:46;;;;;;;6.30;4.20;;;;;;;21.17;52.17;99336.49;109206;1276;23269;-69
2022/06/24 08:26:13;;;;;;;5.80;4.20;;;;;;;21.18;52.05;99340.46;109071;1276;138206;-68
2022/06/24 08:28:40;;;;;;;4.90;3.40;;;;;;;21.19;51.93;99335.96;109234;1276;22635;-69
2022/06/24 08:31:06;;;;;;;9.30;4.20;;;;;;;21.22;52.11;99336.59;109379;1274;22450;-69
2022/06/24 08:33:33;;;;;;;6.10;4.00;;;;;;;21.25;52.60;99338.95;109201;1277;137694;-69
2022/06/24 08:36:00;;;;;;;17.70;3.50;;;;;;;21.30;52.33;99342.59;109209;1275;22445;-69
2022/06/24 08:38:27;;;;;;;7.80;4.60;;;;;;;21.36;51.51;99341.16;109187;1276;138923;-69
2022/06/24 08:40:54;;;;;;;5.00;3.80;;;;;;;21.40;51.50;99339.12;109245;1276;23357;-69
2022/06/24 08:43:21;;;;;;;9.70;4.50;;;;;;;21.45;51.37;99334.08;109244;1276;22381;-69
2022/06/24 08:45:48;;;;;;;8.30;3.80;;;;;;;21.49;51.14;99332.52;109333;1274;22474;-69
2022/06/24 08:48:16;;;;;;;5.70;3.90;;;;;;;21.55;51.34;99329.09;109254;1276;22445;-69
2022/06/24 08:50:42;;;;;;;6.70;3.10;;;;;;;21.62;51.46;99329.98;109151;1274;137850;-69
2022/06/24 08:53:10;;;;;;;4.10;3.40;;;;;;;21.71;51.38;99331.17;109247;1276;22405;-69
2022/06/24 08:55:37;;;;;;;3.40;3.10;;;;;;;21.79;51.21;99328.08;109087;1276;138586;-68
2022/06/24 08:58:11;;;;;;;5.50;4.10;;;;;;;21.89;51.14;99330.14;109171;1276;22351;-69
2022/06/24 09:00:39;;;;;;;6.30;3.70;;;;;;;21.97;50.50;99329.64;109380;1274;23471;-69
2022/06/24 09:03:06;;;;;;;5.20;3.50;;;;;;;22.04;50.62;99323.92;109116;1276;138228;-69
2022/06/24 09:05:33;;;;;;;4.40;3.50;;;;;;;22.09;51.23;99320.30;109224;1276;23484;-69
2022/06/24 09:08:04;;;;;;;6.20;3.10;;;;;;;22.16;51.33;99320.41;109104;1276;139980;-69
2022/06/24 09:10:32;;;;;;;8.90;3.40;;;;;;;22.26;50.67;99322.64;109135;1276;22479;-69
2022/06/24 09:12:59;;;;;;;3.40;3.10;;;;;;;22.35;50.73;99324.88;109256;1276;22452;-67
2022/06/24 09:15:26;;;;;;;18.10;5.20;;;;;;;22.44;49.97;99319.77;109052;1276;138629;-67
2022/06/24 09:17:54;;;;;;;5.60;4.00;;;;;;;22.51;48.55;99316.45;109138;1277;23268;-67
2022/06/24 09:20:22;;;;;;;4.50;3.20;;;;;;;22.59;48.81;99311.75;109136;1276;137499;-69
2022/06/24 09:23:16;;;;;;;8.20;3.90;;;;;;;22.69;49.42;99306.52;109342;1274;22442;-67
2022/06/24 09:25:47;;;;;;;5.80;4.00;;;;;;;22.81;49.69;99306.92;108097;1276;138399;-67
2022/06/24 09:28:21;;;;;;;5.10;3.50;;;;;;;22.95;49.87;99294.18;109221;1276;23070;-68
2022/06/24 09:30:48;;;;;;;8.20;4.00;;;;;;;23.09;48.69;99298.94;109313;1276;24426;-68
2022/06/24 09:33:19;;;;;;;5.70;3.80;;;;;;;23.22;47.34;99293.99;109173;1276;138300;-68
2022/06/24 09:36:03;;;;;;;10.20;5.30;;;;;;;23.34;47.23;99289.54;109352;1276;22539;-68
2022/06/24 09:38:30;;;;;;;10.20;4.00;;;;;;;23.47;47.10;99288.35;109104;1276;138714;-69
2022/06/24 09:41:06;;;;;;;4.40;3.90;;;;;;;23.58;47.59;99288.08;109112;1276;22453;-68
2022/06/24 09:43:33;;;;;;;4.40;4.00;;;;;;;23.71;46.99;99286.48;109052;1275;138045;-68
2022/06/24 09:46:00;;;;;;;7.70;3.90;;;;;;;23.83;46.31;99290.75;109270;1277;22612;-68
2022/06/24 09:48:29;;;;;;;8.30;3.60;;;;;;;23.93;45.52;99293.60;109253;1277;23502;-68
2022/06/24 09:50:57;;;;;;;5.80;3.70;;;;;;;23.95;44.32;99299.56;109149;1276;139501;-68
2022/06/24 09:53:25;;;;;;;5.20;3.60;;;;;;;23.90;43.84;99300.02;109247;1277;23165;-68
2022/06/24 09:55:53;;;;;;;7.50;4.20;;;;;;;23.83;44.12;99297.44;109065;1276;138372;-69
2022/06/24 09:58:20;;;;;;;6.50;3.90;;;;;;;23.79;44.92;99293.83;109347;1274;22462;-68
2022/06/24 10:00:48;;;;;;;9.00;4.40;;;;;;;23.78;44.91;99293.48;109399;1274;22421;-68
2022/06/24 10:03:15;;;;;;;5.40;3.40;;;;;;;23.77;45.33;99287.95;109126;1276;137396;-68
2022/06/24 10:05:52;;;;;;;6.40;3.10;;;;;;;23.77;45.10;99287.64;109411;1275;22236;-69
2022/06/24 10:08:21;;;;;;;5.50;3.60;;;;;;;23.76;45.62;99291.58;109109;1277;137610;-68
2022/06/24 10:10:53;;;;;;;4.40;3.50;;;;;;;23.77;45.41;99288.45;109138;1276;23049;-68
2022/06/24 10:13:26;;;;;;;5.20;3.70;;;;;;;23.79;45.41;99292.06;109212;1277;23080;-68
2022/06/24 10:15:55;;;;;;;4.80;3.50;;;;;;;23.78;45.49;99291.67;109292;1276;22438;-68
2022/06/24 10:18:23;;;;;;;7.50;3.60;;;;;;;23.79;44.97;99294.29;109379;1274;23314;-69
2022/06/24 10:20:51;;;;;;;4.20;3.50;;;;;;;23.78;44.43;99295.45;109104;1276;137376;-68
2022/06/24 10:23:39;;;;;;;6.30;3.30;;;;;;;23.76;44.22;99293.89;109374;1274;22483;-68
2022/06/24 10:26:12;;;;;;;7.90;3.60;;;;;;;23.75;44.44;99292.44;109211;1274;140129;-68
2022/06/24 10:29:03;;;;;;;5.30;3.60;;;;;;;23.75;44.63;99295.92;109161;1276;23279;-68
2022/06/24 10:31:45;;;;;;;9.20;3.60;;;;;;;23.72;44.31;99289.46;108956;1274;138840;-67
2022/06/24 10:34:13;;;;;;;5.80;3.10;;;;;;;23.71;44.72;99292.94;109353;1274;22438;-68
2022/06/24 10:36:39;;;;;;;9.30;3.10;;;;;;;23.72;44.89;99286.52;109311;1274;22450;-68
2022/06/24 10:39:15;;;;;;;4.90;3.40;;;;;;;23.74;44.09;99283.73;109166;1274;137844;-68
2022/06/24 10:41:42;;;;;;;6.00;3.60;;;;;;;23.80;44.11;99281.30;109253;1274;23195;-68
2022/06/24 10:44:22;;;;;;;6.80;3.20;;;;;;;23.86;43.59;99277.66;109074;1276;138839;-68
2022/06/24 10:47:04;;;;;;;4.70;3.20;;;;;;;23.91;43.54;99277.41;109347;1274;23101;-67
2022/06/24 10:49:50;;;;;;;9.40;3.10;;;;;;;23.94;43.13;99269.38;109085;1276;138339;-68
2022/06/24 10:52:48;;;;;;;7.40;3.30;;;;;;;23.97;43.98;99270.19;109118;1276;23180;-68
2022/06/24 10:55:15;;;;;;;6.50;3.30;;;;;;;24.03;43.18;99280.69;109316;1274;22464;-68
2022/06/24 10:57:48;;;;;;;4.90;3.50;;;;;;;24.00;42.39;99273.84;109073;1276;138309;-68
2022/06/24 11:00:19;;;;;;;6.80;3.40;;;;;;;23.91;42.74;99270.49;109251;1276;22440;-68
2022/06/24 11:02:49;;;;;;;18.90;5.30;;;;;;;23.85;43.36;99273.95;109159;1276;138283;-68
2022/06/24 11:05:26;;;;;;;4.10;3.60;;;;;;;23.88;43.43;99271.41;109284;1274;22440;-68
2022/06/24 11:07:53;;;;;;;5.50;3.00;;;;;;;23.97;43.52;99265.80;109068;1274;138912;-68
2022/06/24 11:10:31;;;;;;;9.10;3.40;;;;;;;24.09;43.80;99267.36;109146;1276;23104;-68
2022/06/24 11:12:58;;;;;;;9.30;4.30;;;;;;;24.19;42.96;99262.08;109162;1276;22503;-68
2022/06/24 11:15:35;;;;;;;8.20;3.50;;;;;;;24.22;42.72;99266.88;109070;1277;137747;-68
2022/06/24 11:18:28;;;;;;;5.40;3.30;;;;;;;24.21;42.59;99262.04;109296;1274;22437;-68
2022/06/24 11:21:02;;;;;;;9.10;4.50;;;;;;;24.21;43.01;99262.86;109123;1274;138407;-68
2022/06/24 11:23:30;;;;;;;4.80;2.90;;;;;;;24.26;43.15;99256.65;109161;1276;22443;-68
2022/06/24 11:26:01;;;;;;;4.80;3.20;;;;;;;24.34;43.10;99257.44;109069;1274;139197;-68
2022/06/24 11:28:30;;;;;;;5.50;3.20;;;;;;;24.42;42.91;99252.30;109234;1275;22438;-68
2022/06/24 11:31:15;;;;;;;4.90;3.00;;;;;;;24.45;42.57;99261.46;109239;1276;22486;-68
2022/06/24 11:33:43;;;;;;;6.90;3.70;;;;;;;24.42;42.65;99256.59;109046;1277;138534;-68
2022/06/24 11:36:10;;;;;;;11.60;3.00;;;;;;;24.37;43.08;99258.25;107455;1277;24296;-68
2022/06/24 11:38:56;;;;;;;4.30;3.30;;;;;;;24.37;43.12;99250.13;104838;1274;137843;-68
2022/06/24 11:41:26;;;;;;;5.40;3.60;;;;;;;24.41;43.21;99249.09;109181;1276;22705;-68